Terminal Aerodrome Forecast
Issued by NWS Melbourne, FL

Home | Current Version | Previous Version | Text Only | Print | Product List | Glossary On
Versions: 1 2 3 4 5 6 7 8 9 10 11 12 13 14 15 16 17 18
473
FTUS42 KMLB 080545
TAFVRB
TAF
KVRB 080545Z 0806/0906 00000KT 6SM BR MIFG FEW250
      TEMPO 0808/0812 3SM BR
     FM081500 35008KT P6SM SCT035 SCT250
     FM090300 34006KT P6SM VCSH BKN050 OVC120=

USA.gov is the U.S. government's official web portal to all federal, state and local government web resources and services.